Montgomery Creek, California
Current Conditions -  °F | °C
As of 11:53 PM on Saturday 20 Dec 2014 (Local Time) from KRDD Reporting Station
Haze Haze  
Wind Chill: 53°   Ceiling: 900
Heat Index: 53°   Visibility: 4mi
Dew Point: 52°   Wind: 9mph
Humidity: 96%   Direction: 200°SSW
Pressure: 30.22"   Gusts: NA
Location:  40.85°N, 121.96°W
Report Text: KRDD 210753Z 20008KT 4SM BR OVC009 12/11 A3022 RMK AO2 CIG 006V012 SLP231 T01170111 401220106
Loading
Personal Weather Stations






























Interactive Weather Map New forecast layout! Learn more

10-Day Weather Forecast

Advertisements
Track Severe Weather on mobile